Time;durP1;ratioP1;P1;durP2;ratioP2;P2;SDS_P1;SDS_P2;PMS_P1;PMS_P2;Temp;Humidity;BMP_temperature;BMP_pressure;BME280_temperature;BME280_humidity;BME280_pressure;Samples;Min_cycle;Max_cycle;Signal;HPM_P1;HPM_P2
2022/06/11 00:01:19;;;;;;;12.07;10.98;;;;;;;;;;6096208;23;20021;-84
2022/06/11 00:03:46;;;;;;;12.50;11.30;;;;;;;;;;6070495;23;20011;-85
2022/06/11 00:06:12;;;;;;;11.93;10.73;;;;;;;;;;6097615;23;20476;-83
2022/06/11 00:08:39;;;;;;;12.15;10.95;;;;;;;;;;6072371;23;20308;-84
2022/06/11 00:11:06;;;;;;;11.68;10.48;;;;;;;;;;6097913;23;20010;-84
2022/06/11 00:13:32;;;;;;;12.48;10.70;;;;;;;;;;6097209;23;20027;-84
2022/06/11 00:16:01;;;;;;;12.00;10.80;;;;;;;;;;6072127;23;20013;-84
2022/06/11 00:18:28;;;;;;;11.95;10.82;;;;;;;;;;6072054;23;20006;-83
2022/06/11 00:20:55;;;;;;;12.18;10.90;;;;;;;;;;6072071;23;20014;-82
2022/06/11 00:23:21;;;;;;;11.65;10.55;;;;;;;;;;6097383;23;20005;-85
2022/06/11 00:25:47;;;;;;;12.70;11.40;;;;;;;;;;6097646;23;20006;-83
2022/06/11 00:28:14;;;;;;;12.38;11.07;;;;;;;;;;6097442;23;20010;-83
2022/06/11 00:30:40;;;;;;;11.32;10.23;;;;;;;;;;6097285;23;20003;-81
2022/06/11 00:33:07;;;;;;;11.73;10.63;;;;;;;;;;6097905;23;20003;-83
2022/06/11 00:35:33;;;;;;;12.38;11.18;;;;;;;;;;6071837;23;20018;-80
2022/06/11 00:37:59;;;;;;;14.10;12.05;;;;;;;;;;6097360;23;20469;-82
2022/06/11 00:40:33;;;;;;;11.98;10.77;;;;;;;;;;6072163;23;20094;-84
2022/06/11 00:42:59;;;;;;;11.68;10.57;;;;;;;;;;6097652;23;20010;-84
2022/06/11 00:45:51;;;;;;;12.73;11.43;;;;;;;;;;6097273;23;20002;-87
2022/06/11 00:48:17;;;;;;;11.73;10.27;;;;;;;;;;6042348;23;20019;-84
2022/06/11 00:50:45;;;;;;;12.32;11.10;;;;;;;;;;6097211;23;20006;-80
2022/06/11 00:53:18;;;;;;;11.75;10.65;;;;;;;;;;6096843;23;20003;-78
2022/06/11 00:55:45;;;;;;;11.60;10.50;;;;;;;;;;6097169;23;20006;-84
2022/06/11 00:58:13;;;;;;;13.13;11.82;;;;;;;;;;6096782;23;20054;-84
2022/06/11 01:00:41;;;;;;;12.35;10.73;;;;;;;;;;6097151;23;20002;-80
2022/06/11 01:03:12;;;;;;;12.88;10.07;;;;;;;;;;6096776;23;20013;-82
2022/06/11 01:05:39;;;;;;;12.75;11.45;;;;;;;;;;6097193;23;20026;-83
2022/06/11 01:08:05;;;;;;;12.60;11.30;;;;;;;;;;6096785;23;20404;-81
2022/06/11 01:10:31;;;;;;;14.00;12.63;;;;;;;;;;6096614;23;20013;-81
2022/06/11 01:13:16;;;;;;;11.40;10.27;;;;;;;;;;6096583;23;20069;-81
2022/06/11 01:15:42;;;;;;;;;;;;;;;;;;6097462;23;20010;-82
2022/06/11 01:18:27;;;;;;;12.57;10.93;;;;;;;;;;6096921;23;19908;-83
2022/06/11 01:21:12;;;;;;;12.25;11.05;;;;;;;;;;6071523;23;20431;-86
2022/06/11 01:23:50;;;;;;;11.80;10.70;;;;;;;;;;6096894;23;20003;-80
2022/06/11 01:26:34;;;;;;;12.07;10.70;;;;;;;;;;6071118;23;20010;-82
2022/06/11 01:29:05;;;;;;;10.82;9.82;;;;;;;;;;6096979;23;20021;-86
2022/06/11 01:31:49;;;;;;;12.10;11.00;;;;;;;;;;6096943;23;20002;-84
2022/06/11 01:34:15;;;;;;;;;;;;;;;;;;6071780;23;20010;-84
2022/06/11 01:36:42;;;;;;;11.85;10.65;;;;;;;;;;6096846;23;20238;-83
2022/06/11 01:39:18;;;;;;;12.27;11.13;;;;;;;;;;6096897;23;20002;-85
2022/06/11 01:41:58;;;;;;;11.60;10.38;;;;;;;;;;6096523;23;20077;-83
2022/06/11 01:44:27;;;;;;;12.13;10.90;;;;;;;;;;6096612;23;20013;-82
2022/06/11 01:46:54;;;;;;;11.45;10.45;;;;;;;;;;6096558;23;20017;-81
2022/06/11 01:49:20;;;;;;;11.40;10.00;;;;;;;;;;6096473;23;20333;-84
2022/06/11 01:51:54;;;;;;;10.90;9.80;;;;;;;;;;6071160;23;20069;-85
2022/06/11 01:54:26;;;;;;;10.88;9.88;;;;;;;;;;6096608;23;20058;-85
2022/06/11 01:56:53;;;;;;;11.98;10.88;;;;;;;;;;6096802;23;20452;-81
2022/06/11 01:59:31;;;;;;;11.45;10.35;;;;;;;;;;6096028;23;20003;-82
2022/06/11 02:02:25;;;;;;;12.50;10.75;;;;;;;;;;6071602;23;20386;-83
2022/06/11 02:05:10;;;;;;;12.70;9.82;;;;;;;;;;6081501;23;20017;-83
2022/06/11 02:07:46;;;;;;;11.88;10.30;;;;;;;;;;6096519;23;20021;-81
2022/06/11 02:10:16;;;;;;;10.40;9.40;;;;;;;;;;6070839;23;20025;-82
2022/06/11 02:12:47;;;;;;;11.07;9.98;;;;;;;;;;6096374;23;20394;-86
2022/06/11 02:15:35;;;;;;;11.82;10.63;;;;;;;;;;6070729;23;20010;-83
2022/06/11 02:18:06;;;;;;;11.82;10.63;;;;;;;;;;6095856;23;20011;-85
2022/06/11 02:20:38;;;;;;;11.13;10.13;;;;;;;;;;6071001;23;20410;-81
2022/06/11 02:23:18;;;;;;;10.50;9.50;;;;;;;;;;6096252;23;20010;-85
2022/06/11 02:25:47;;;;;;;13.68;9.82;;;;;;;;;;6096214;23;20434;-83
2022/06/11 02:28:24;;;;;;;12.02;10.90;;;;;;;;;;6070638;23;20454;-85
2022/06/11 02:30:52;;;;;;;11.18;10.10;;;;;;;;;;6096406;23;20002;-83
2022/06/11 02:33:19;;;;;;;11.55;10.23;;;;;;;;;;6096352;23;20009;-84
2022/06/11 02:35:53;;;;;;;11.25;10.15;;;;;;;;;;6096462;23;20006;-84
2022/06/11 02:38:21;;;;;;;10.77;9.68;;;;;;;;;;6096234;23;20494;-80
2022/06/11 02:41:06;;;;;;;10.15;9.20;;;;;;;;;;6096332;23;20369;-83
2022/06/11 02:43:32;;;;;;;10.32;9.23;;;;;;;;;;6096611;23;20017;-85
2022/06/11 02:45:58;;;;;;;9.35;8.45;;;;;;;;;;6070887;23;20518;-84
2022/06/11 02:48:25;;;;;;;9.73;8.82;;;;;;;;;;6095936;23;20006;-83
2022/06/11 02:50:53;;;;;;;10.57;9.48;;;;;;;;;;6096454;23;20002;-82
2022/06/11 02:53:19;;;;;;;11.30;8.90;;;;;;;;;;6070451;23;20438;-81
2022/06/11 02:55:46;;;;;;;11.30;10.18;;;;;;;;;;6096437;23;20010;-83
2022/06/11 02:58:13;;;;;;;12.13;10.93;;;;;;;;;;6095981;23;20006;-82
2022/06/11 03:00:41;;;;;;;11.15;10.05;;;;;;;;;;6096302;23;20017;-83
2022/06/11 03:03:07;;;;;;;10.73;9.63;;;;;;;;;;6096106;23;20013;-84
2022/06/11 03:05:34;;;;;;;11.98;10.77;;;;;;;;;;6096140;23;20382;-85
2022/06/11 03:08:01;;;;;;;11.82;10.73;;;;;;;;;;6096136;23;20045;-85
2022/06/11 03:10:30;;;;;;;10.77;9.70;;;;;;;;;;6096063;23;20314;-85
2022/06/11 03:12:57;;;;;;;11.07;10.10;;;;;;;;;;6095929;23;20022;-82
2022/06/11 03:15:23;;;;;;;11.75;10.55;;;;;;;;;;6095994;23;20433;-82
2022/06/11 03:17:53;;;;;;;10.45;9.45;;;;;;;;;;6096298;23;20006;-82
2022/06/11 03:20:21;;;;;;;11.15;10.05;;;;;;;;;;6096004;23;20002;-86
2022/06/11 03:22:49;;;;;;;10.07;9.07;;;;;;;;;;6096394;23;20013;-85
2022/06/11 03:25:16;;;;;;;10.82;9.82;;;;;;;;;;6095934;23;20013;-81
2022/06/11 03:27:44;;;;;;;10.20;9.20;;;;;;;;;;6070586;23;20105;-82
2022/06/11 03:30:14;;;;;;;11.13;10.02;;;;;;;;;;6096023;23;20081;-82
2022/06/11 03:32:41;;;;;;;9.90;8.90;;;;;;;;;;6096245;23;20007;-81
2022/06/11 03:35:07;;;;;;;11.73;9.57;;;;;;;;;;6070408;23;20434;-83
2022/06/11 03:37:34;;;;;;;9.57;8.68;;;;;;;;;;6070574;23;20051;-82
2022/06/11 03:40:00;;;;;;;11.43;9.65;;;;;;;;;;6096853;23;20002;-82
2022/06/11 03:42:26;;;;;;;11.05;9.95;;;;;;;;;;6097896;23;20002;-82
2022/06/11 03:44:52;;;;;;;10.55;9.23;;;;;;;;;;6098092;23;20333;-81
2022/06/11 03:47:19;;;;;;;11.13;9.23;;;;;;;;;;6097829;23;20065;-81
2022/06/11 03:49:45;;;;;;;10.25;9.27;;;;;;;;;;6098004;23;20046;-84
2022/06/11 03:52:11;;;;;;;11.35;8.60;;;;;;;;;;6097767;23;20033;-85
2022/06/11 03:54:38;;;;;;;10.23;8.70;;;;;;;;;;6072594;23;20017;-82
2022/06/11 03:57:05;;;;;;;11.10;9.95;;;;;;;;;;6072252;23;20009;-84
2022/06/11 03:59:33;;;;;;;10.35;9.45;;;;;;;;;;6097716;23;20081;-83
2022/06/11 04:02:00;;;;;;;10.85;9.30;;;;;;;;;;6072398;23;20014;-83
2022/06/11 04:07:33;;;;;;;12.40;11.27;;;;;;;;;;6082486;23;20018;-83
2022/06/11 04:10:14;;;;;;;10.65;9.55;;;;;;;;;;6097605;23;20041;-84
2022/06/11 04:12:40;;;;;;;11.15;9.75;;;;;;;;;;6097276;23;20014;-83
2022/06/11 04:15:06;;;;;;;10.55;9.48;;;;;;;;;;6072191;23;20010;-83
2022/06/11 04:17:33;;;;;;;10.63;9.57;;;;;;;;;;6097448;23;20029;-83
2022/06/11 04:19:59;;;;;;;9.82;8.38;;;;;;;;;;6072154;23;20014;-83
2022/06/11 04:22:28;;;;;;;11.43;10.05;;;;;;;;;;6097247;23;20006;-83
2022/06/11 04:24:59;;;;;;;10.77;9.48;;;;;;;;;;6097731;23;20003;-83
2022/06/11 04:27:25;;;;;;;10.73;9.57;;;;;;;;;;6097431;23;20513;-83
2022/06/11 04:29:54;;;;;;;9.88;9.02;;;;;;;;;;6097809;23;20081;-84
2022/06/11 04:32:33;;;;;;;;;;;;;;;;;;;;;
2022/06/11 04:35:01;;;;;;;11.75;10.55;;;;;;;;;;6097633;23;20529;-86
2022/06/11 04:37:29;;;;;;;12.93;11.63;;;;;;;;;;6097287;23;20359;-85
2022/06/11 04:40:01;;;;;;;9.75;8.85;;;;;;;;;;6097530;23;20037;-84
2022/06/11 04:42:31;;;;;;;9.75;8.95;;;;;;;;;;6097335;23;19999;-83
2022/06/11 04:44:58;;;;;;;14.07;8.77;;;;;;;;;;6071868;23;20012;-84
2022/06/11 04:47:44;;;;;;;8.23;7.45;;;;;;;;;;6096990;23;20097;-85
2022/06/11 04:50:12;;;;;;;9.02;7.93;;;;;;;;;;6096981;23;19998;-81
2022/06/11 04:52:39;;;;;;;8.43;7.57;;;;;;;;;;6071921;23;20006;-84
2022/06/11 04:55:05;;;;;;;7.30;6.60;;;;;;;;;;6097175;23;20006;-84
2022/06/11 04:57:31;;;;;;;7.78;6.47;;;;;;;;;;6097303;23;19998;-86
2022/06/11 04:59:57;;;;;;;7.30;6.60;;;;;;;;;;6097052;23;20012;-84
2022/06/11 05:02:26;;;;;;;7.22;6.50;;;;;;;;;;6071548;23;20006;-84
2022/06/11 05:04:52;;;;;;;6.35;5.75;;;;;;;;;;6096865;23;20010;-81
2022/06/11 05:07:19;;;;;;;6.97;6.38;;;;;;;;;;6097221;23;20501;-86
2022/06/11 05:09:45;;;;;;;5.90;5.30;;;;;;;;;;6096770;23;20006;-83
2022/06/11 05:12:14;;;;;;;6.70;5.95;;;;;;;;;;6096881;23;20010;-84
2022/06/11 05:14:41;;;;;;;7.28;6.57;;;;;;;;;;6097141;23;20014;-83
2022/06/11 05:17:07;;;;;;;7.20;6.50;;;;;;;;;;6096617;23;20296;-87
2022/06/11 05:19:34;;;;;;;7.28;6.47;;;;;;;;;;6071509;23;20453;-85
2022/06/11 05:22:03;;;;;;;6.75;6.05;;;;;;;;;;6096840;23;20002;-85
2022/06/11 05:24:29;;;;;;;8.00;6.60;;;;;;;;;;6096910;23;20006;-82
2022/06/11 05:27:14;;;;;;;8.15;6.03;;;;;;;;;;6096578;23;20453;-84
2022/06/11 05:29:54;;;;;;;7.93;5.75;;;;;;;;;;6096499;23;20049;-82
2022/06/11 05:32:26;;;;;;;7.30;6.60;;;;;;;;;;6096897;23;20334;-83
2022/06/11 05:34:53;;;;;;;6.63;6.03;;;;;;;;;;6096796;23;20078;-84
2022/06/11 05:37:20;;;;;;;7.05;6.38;;;;;;;;;;6096908;23;19999;-83
2022/06/11 05:39:46;;;;;;;6.95;5.75;;;;;;;;;;6094162;23;20093;-83
2022/06/11 05:42:13;;;;;;;6.75;5.38;;;;;;;;;;6096092;23;20041;-82
2022/06/11 05:44:40;;;;;;;5.80;5.20;;;;;;;;;;6095862;23;20010;-82
2022/06/11 05:47:09;;;;;;;5.88;5.38;;;;;;;;;;6070719;23;20016;-83
2022/06/11 05:49:37;;;;;;;5.22;4.82;;;;;;;;;;6095583;23;20011;-85
2022/06/11 05:52:06;;;;;;;5.28;4.68;;;;;;;;;;6070820;23;20069;-86
2022/06/11 05:54:33;;;;;;;4.53;4.13;;;;;;;;;;6070429;23;20010;-86
2022/06/11 05:57:03;;;;;;;5.50;5.00;;;;;;;;;;6070757;23;20013;-86
2022/06/11 05:59:45;;;;;;;4.95;4.45;;;;;;;;;;6096019;23;20064;-79
2022/06/11 06:02:13;;;;;;;5.72;4.22;;;;;;;;;;6095729;23;20006;-81
2022/06/11 06:05:02;;;;;;;4.95;4.30;;;;;;;;;;6096042;23;20399;-83
2022/06/11 06:07:28;;;;;;;5.60;4.70;;;;;;;;;;6096269;23;20018;-84
2022/06/11 06:09:58;;;;;;;10.65;4.28;;;;;;;;;;6070442;23;20003;-81
2022/06/11 06:12:24;;;;;;;5.68;4.43;;;;;;;;;;6096167;23;20013;-81
2022/06/11 06:14:50;;;;;;;4.00;3.60;;;;;;;;;;6095879;23;20966;-81
2022/06/11 06:17:16;;;;;;;5.15;4.30;;;;;;;;;;6096175;23;19995;-84
2022/06/11 06:19:43;;;;;;;5.00;4.10;;;;;;;;;;6096406;23;20074;-84
2022/06/11 06:22:09;;;;;;;4.32;3.92;;;;;;;;;;6095294;23;20009;-81
2022/06/11 06:27:29;;;;;;;4.72;4.18;;;;;;;;;;6080069;23;20021;-84
2022/06/11 06:30:18;;;;;;;4.53;3.70;;;;;;;;;;6095572;23;20002;-82
2022/06/11 06:32:45;;;;;;;5.72;3.90;;;;;;;;;;6069454;23;20018;-81
2022/06/11 06:35:31;;;;;;;3.60;3.25;;;;;;;;;;6095536;23;20105;-85
2022/06/11 06:43:57;;;;;;;4.18;3.60;;;;;;;;;;5997195;23;20007;-83
2022/06/11 06:46:48;;;;;;;3.25;2.42;;;;;;;;;;6078309;23;20350;-81
2022/06/11 06:49:23;;;;;;;5.05;3.53;;;;;;;;;;6041106;23;20014;-81
2022/06/11 06:51:49;;;;;;;4.38;2.53;;;;;;;;;;6069763;23;20069;-84
2022/06/11 06:54:18;;;;;;;5.13;2.85;;;;;;;;;;6070276;23;20014;-82
2022/06/11 06:56:47;;;;;;;3.70;2.97;;;;;;;;;;6095256;23;20057;-82
2022/06/11 06:59:13;;;;;;;5.35;2.85;;;;;;;;;;6095801;23;20002;-82
2022/06/11 07:01:52;;;;;;;;;;;;;;;;;;;;;
2022/06/11 07:04:50;;;;;;;3.85;2.65;;;;;;;;;;6094883;23;20074;-81
2022/06/11 07:07:42;;;;;;;3.78;2.55;;;;;;;;;;6037634;23;20007;-83
2022/06/11 07:10:18;;;;;;;3.33;2.50;;;;;;;;;;6095905;23;20006;-82
2022/06/11 07:12:45;;;;;;;3.80;2.17;;;;;;;;;;6095279;23;20304;-80
2022/06/11 07:15:11;;;;;;;2.88;2.67;;;;;;;;;;6097807;23;20010;-81
2022/06/11 07:17:49;;;;;;;2.10;1.75;;;;;;;;;;6097645;23;20005;-84
2022/06/11 07:23:35;;;;;;;3.90;2.33;;;;;;;;;;5952570;24;20068;-84
2022/06/11 07:26:11;;;;;;;4.00;1.92;;;;;;;;;;5952772;24;20061;-81
2022/06/11 07:28:40;;;;;;;2.47;1.83;;;;;;;;;;5952812;24;20045;-83
2022/06/11 07:31:06;;;;;;;2.30;2.10;;;;;;;;;;5929999;24;20040;-82
2022/06/11 07:33:53;;;;;;;2.35;1.80;;;;;;;;;;5958778;23;20327;-81
2022/06/11 07:39:29;;;;;;;2.40;2.20;;;;;;;;;;6052751;23;20002;-86
2022/06/11 07:42:04;;;;;;;3.00;2.20;;;;;;;;;;6079084;23;20049;-83
2022/06/11 07:44:31;;;;;;;2.10;1.90;;;;;;;;;;6096889;23;20326;-84
2022/06/11 07:47:53;;;;;;;2.17;1.90;;;;;;;;;;6070747;23;20041;-80
2022/06/11 07:50:01;;;;;;;4.15;2.10;;;;;;;;;;6097315;23;20026;-81
2022/06/11 07:52:27;;;;;;;12.32;11.00;;;;;;;;;;6096877;23;20034;-83
2022/06/11 07:54:58;;;;;;;2.58;2.20;;;;;;;;;;6097298;23;20085;-86
2022/06/11 07:57:43;;;;;;;3.00;1.75;;;;;;;;;;6097330;23;20002;-85
2022/06/11 08:00:12;;;;;;;2.22;1.77;;;;;;;;;;6096676;23;20006;-85
2022/06/11 08:02:38;;;;;;;3.35;2.00;;;;;;;;;;6097632;23;20002;-83
2022/06/11 08:05:05;;;;;;;3.75;2.25;;;;;;;;;;6097043;23;20002;-80
2022/06/11 08:07:31;;;;;;;2.65;1.73;;;;;;;;;;6097204;23;20006;-83
2022/06/11 08:10:00;;;;;;;3.00;1.80;;;;;;;;;;6096993;23;20002;-83
2022/06/11 08:12:26;;;;;;;2.45;1.92;;;;;;;;;;6095795;23;20066;-80
2022/06/11 08:14:56;;;;;;;3.97;2.33;;;;;;;;;;6070671;23;20010;-83
2022/06/11 08:17:32;;;;;;;3.55;2.28;;;;;;;;;;6096611;23;20095;-83
2022/06/11 08:19:59;;;;;;;2.10;1.90;;;;;;;;;;6097206;23;20434;-81
2022/06/11 08:22:25;;;;;;;3.05;2.40;;;;;;;;;;6097210;23;20315;-83
2022/06/11 08:24:51;;;;;;;2.35;2.10;;;;;;;;;;6096665;23;20007;-87
2022/06/11 08:27:17;;;;;;;2.90;2.60;;;;;;;;;;6097358;23;20071;-83
2022/06/11 08:29:44;;;;;;;3.65;3.30;;;;;;;;;;6097387;23;20007;-82
2022/06/11 08:32:10;;;;;;;4.15;2.03;;;;;;;;;;6097009;23;20054;-80
2022/06/11 08:34:43;;;;;;;2.20;1.80;;;;;;;;;;6097555;23;20007;-85
2022/06/11 08:37:09;;;;;;;3.95;2.17;;;;;;;;;;6096552;23;20331;-82
2022/06/11 08:39:36;;;;;;;2.63;1.35;;;;;;;;;;6097401;23;20013;-82
2022/06/11 08:42:04;;;;;;;3.92;1.98;;;;;;;;;;6096755;23;20311;-84
2022/06/11 08:44:32;;;;;;;4.25;1.67;;;;;;;;;;6097025;23;20093;-84
2022/06/11 08:49:49;;;;;;;2.85;1.60;;;;;;;;;;6051609;23;20094;-85
2022/06/11 08:52:24;;;;;;;2.83;1.88;;;;;;;;;;6071470;23;20002;-84
2022/06/11 08:54:50;;;;;;;2.47;1.80;;;;;;;;;;6096834;23;20010;-87
2022/06/11 08:57:31;;;;;;;2.35;1.70;;;;;;;;;;6071097;23;20061;-84
2022/06/11 09:00:00;;;;;;;1.70;1.60;;;;;;;;;;6096963;23;20006;-84
2022/06/11 09:02:26;;;;;;;2.60;2.08;;;;;;;;;;6096943;23;20304;-85
2022/06/11 09:05:10;;;;;;;2.47;1.70;;;;;;;;;;6096662;23;20007;-83
2022/06/11 09:07:37;;;;;;;2.05;1.67;;;;;;;;;;6096658;23;20017;-84
2022/06/11 09:10:21;;;;;;;2.92;1.45;;;;;;;;;;6096351;23;20022;-81
2022/06/11 09:12:53;;;;;;;1.77;1.60;;;;;;;;;;6070296;23;20093;-81
2022/06/11 09:15:19;;;;;;;2.20;2.00;;;;;;;;;;6096720;23;20010;-86
2022/06/11 09:17:45;;;;;;;2.63;1.33;;;;;;;;;;6070306;23;19998;-81
2022/06/11 09:20:18;;;;;;;3.22;1.77;;;;;;;;;;6096369;23;20007;-80
2022/06/11 09:22:50;;;;;;;2.95;1.38;;;;;;;;;;6096142;23;20057;-85
2022/06/11 09:25:22;;;;;;;1.75;1.38;;;;;;;;;;6096612;23;20029;-84
2022/06/11 09:28:07;;;;;;;3.15;1.98;;;;;;;;;;6071133;23;20014;-85
2022/06/11 09:30:53;;;;;;;4.43;2.03;;;;;;;;;;6096515;23;20326;-85
2022/06/11 09:33:40;;;;;;;2.50;1.98;;;;;;;;;;6071109;23;20013;-85
2022/06/11 09:36:11;;;;;;;4.03;2.22;;;;;;;;;;6096663;23;20006;-80
2022/06/11 09:38:40;;;;;;;7.00;5.28;;;;;;;;;;6070273;23;20092;-79
2022/06/11 09:41:25;;;;;;;3.60;2.28;;;;;;;;;;6070920;23;20006;-84
2022/06/11 09:44:09;;;;;;;4.00;2.60;;;;;;;;;;6096196;23;20010;-81
2022/06/11 09:46:35;;;;;;;;;;;;;;;;;;6096880;23;20007;-82
2022/06/11 09:49:01;;;;;;;3.05;1.95;;;;;;;;;;6070590;23;19915;-81
2022/06/11 09:51:30;;;;;;;2.20;1.83;;;;;;;;;;6096166;23;20002;-83
2022/06/11 09:54:06;;;;;;;3.33;2.45;;;;;;;;;;6096467;23;20002;-82
2022/06/11 09:56:51;;;;;;;4.60;2.20;;;;;;;;;;6096378;23;20007;-81
2022/06/11 09:59:24;;;;;;;3.80;2.35;;;;;;;;;;6096301;23;20030;-85
2022/06/11 10:01:56;;;;;;;3.55;2.42;;;;;;;;;;6095820;23;20085;-80
2022/06/11 10:04:28;;;;;;;3.42;2.40;;;;;;;;;;6070589;23;20344;-83
2022/06/11 10:06:56;;;;;;;3.47;2.95;;;;;;;;;;6096196;23;20445;-81
2022/06/11 10:09:26;;;;;;;3.38;2.97;;;;;;;;;;6096138;23;20019;-82
2022/06/11 10:11:54;;;;;;;3.90;2.90;;;;;;;;;;6070487;23;20006;-82
2022/06/11 10:17:20;;;;;;;3.78;2.97;;;;;;;;;;6095794;23;20454;-82
2022/06/11 10:20:00;;;;;;;4.50;3.25;;;;;;;;;;6096189;23;20057;-84
2022/06/11 10:22:45;;;;;;;3.28;2.97;;;;;;;;;;6096377;23;20009;-81
2022/06/11 10:25:23;;;;;;;2.60;2.40;;;;;;;;;;6095923;23;20006;-80
2022/06/11 10:27:53;;;;;;;2.63;2.42;;;;;;;;;;6095931;23;20014;-80
2022/06/11 10:30:39;;;;;;;2.95;2.00;;;;;;;;;;6096037;23;20049;-78
2022/06/11 10:33:10;;;;;;;2.80;1.83;;;;;;;;;;6095018;23;20002;-78
2022/06/11 10:35:42;;;;;;;2.15;1.75;;;;;;;;;;6095799;23;20013;-81
2022/06/11 10:38:12;;;;;;;2.13;1.92;;;;;;;;;;6069640;23;20010;-80
2022/06/11 10:40:40;;;;;;;2.22;1.63;;;;;;;;;;6070363;23;20435;-81
2022/06/11 10:43:25;;;;;;;1.65;1.13;;;;;;;;;;6095702;23;20007;-79
2022/06/11 10:45:51;;;;;;;2.72;0.90;;;;;;;;;;6095317;23;20006;-80
2022/06/11 10:48:19;;;;;;;2.53;0.98;;;;;;;;;;6095747;23;20014;-79
2022/06/11 10:50:48;;;;;;;4.10;1.17;;;;;;;;;;6070054;23;20409;-80
2022/06/11 10:53:26;;;;;;;1.33;0.70;;;;;;;;;;6070258;23;20399;-80
2022/06/11 10:55:55;;;;;;;1.25;0.95;;;;;;;;;;6095490;23;20342;-82
2022/06/11 10:58:21;;;;;;;1.70;1.10;;;;;;;;;;6070299;23;20438;-79
2022/06/11 11:00:53;;;;;;;0.80;0.70;;;;;;;;;;6095411;23;20051;-79
2022/06/11 11:03:39;;;;;;;1.67;0.80;;;;;;;;;;6096081;23;20030;-83
2022/06/11 11:06:07;;;;;;;3.63;0.93;;;;;;;;;;6069887;23;20093;-81
2022/06/11 11:08:36;;;;;;;1.77;1.13;;;;;;;;;;6095827;23;20014;-79
2022/06/11 11:11:07;;;;;;;2.13;0.98;;;;;;;;;;6095593;23;20006;-82
2022/06/11 11:13:39;;;;;;;1.10;1.00;;;;;;;;;;6095641;23;20022;-79
2022/06/11 11:16:25;;;;;;;1.40;0.80;;;;;;;;;;6095522;23;20398;-78
2022/06/11 11:18:54;;;;;;;0.80;0.60;;;;;;;;;;6095392;23;20081;-79
2022/06/11 11:21:28;;;;;;;1.35;0.80;;;;;;;;;;6095607;23;20034;-80
2022/06/11 11:23:55;;;;;;;2.45;0.90;;;;;;;;;;6095093;23;20009;-79
2022/06/11 11:26:42;;;;;;;0.90;0.50;;;;;;;;;;6095652;23;20394;-80
2022/06/11 11:29:11;;;;;;;2.55;0.57;;;;;;;;;;6095377;23;20046;-80
2022/06/11 11:31:42;;;;;;;1.50;0.50;;;;;;;;;;6095582;23;20009;-82
2022/06/11 11:34:24;;;;;;;2.22;0.93;;;;;;;;;;6095184;23;20137;-78
2022/06/11 11:36:57;;;;;;;1.50;0.65;;;;;;;;;;6095668;23;20006;-81
2022/06/11 11:39:25;;;;;;;0.75;0.40;;;;;;;;;;6095210;23;20011;-83
2022/06/11 11:42:01;;;;;;;1.33;0.47;;;;;;;;;;6095733;23;20006;-79
2022/06/11 11:44:27;;;;;;;0.77;0.40;;;;;;;;;;6096001;23;20014;-80
2022/06/11 11:46:56;;;;;;;1.88;0.75;;;;;;;;;;6095600;23;20057;-82
2022/06/11 11:49:26;;;;;;;2.08;1.17;;;;;;;;;;6095420;23;20019;-81
2022/06/11 11:51:52;;;;;;;1.75;1.00;;;;;;;;;;6046225;23;20006;-82
2022/06/11 11:54:19;;;;;;;2.03;0.70;;;;;;;;;;6095594;23;20447;-83
2022/06/11 11:56:46;;;;;;;1.05;0.60;;;;;;;;;;6070154;23;20350;-83
2022/06/11 11:59:15;;;;;;;2.58;0.60;;;;;;;;;;6094948;23;20010;-79
2022/06/11 12:01:42;;;;;;;2.50;0.63;;;;;;;;;;6096934;23;19998;-79
2022/06/11 12:04:26;;;;;;;3.47;1.15;;;;;;;;;;6096954;23;20012;-82
2022/06/11 12:07:11;;;;;;;3.35;0.80;;;;;;;;;;6097061;23;20415;-82
2022/06/11 12:09:48;;;;;;;2.05;1.48;;;;;;;;;;6071285;23;20030;-82
2022/06/11 12:12:14;;;;;;;2.42;1.42;;;;;;;;;;6096714;23;20078;-80
2022/06/11 12:14:49;;;;;;;3.25;1.33;;;;;;;;;;6097338;23;20006;-81
2022/06/11 12:17:15;;;;;;;2.00;1.13;;;;;;;;;;6071368;23;20014;-80
2022/06/11 12:19:42;;;;;;;3.63;1.90;;;;;;;;;;6097376;23;20002;-81
2022/06/11 12:22:23;;;;;;;2.40;1.88;;;;;;;;;;6097030;23;20338;-85
2022/06/11 12:24:49;;;;;;;2.30;2.10;;;;;;;;;;6097573;23;20026;-80
2022/06/11 12:27:25;;;;;;;4.68;2.50;;;;;;;;;;6096634;23;20527;-76
2022/06/11 12:29:53;;;;;;;3.67;1.90;;;;;;;;;;6097057;23;20461;-80
2022/06/11 12:32:20;;;;;;;3.03;2.22;;;;;;;;;;6096833;23;20007;-81
2022/06/11 12:34:46;;;;;;;2.22;2.00;;;;;;;;;;6097276;23;20010;-80
2022/06/11 12:37:18;;;;;;;2.72;1.80;;;;;;;;;;6096674;23;20053;-79
2022/06/11 12:39:57;;;;;;;2.50;2.00;;;;;;;;;;6096937;23;20002;-83
2022/06/11 12:42:32;;;;;;;2.42;1.90;;;;;;;;;;6096973;23;20007;-78
2022/06/11 12:45:09;;;;;;;3.08;2.75;;;;;;;;;;6097085;23;20053;-84
2022/06/11 12:47:47;;;;;;;3.45;2.63;;;;;;;;;;6096540;23;20041;-84
2022/06/11 12:50:32;;;;;;;6.50;2.70;;;;;;;;;;6071153;23;20006;-80
2022/06/11 12:53:30;;;;;;;2.45;2.17;;;;;;;;;;6096844;23;20442;-81
2022/06/11 12:55:56;;;;;;;4.15;3.00;;;;;;;;;;6018786;23;20006;-83
2022/06/11 12:58:49;;;;;;;2.88;2.50;;;;;;;;;;6096758;23;20038;-83
2022/06/11 13:01:33;;;;;;;3.22;2.10;;;;;;;;;;6017829;23;20010;-83
2022/06/11 13:04:19;;;;;;;4.47;2.75;;;;;;;;;;6096532;23;20006;-81
2022/06/11 13:06:58;;;;;;;2.83;2.20;;;;;;;;;;6096917;23;20160;-79
2022/06/11 13:09:42;;;;;;;2.45;2.13;;;;;;;;;;6096890;23;20046;-77
2022/06/11 13:12:14;;;;;;;3.28;2.95;;;;;;;;;;6071696;23;20013;-79
2022/06/11 13:15:00;;;;;;;3.75;2.10;;;;;;;;;;6096713;23;20066;-80
2022/06/11 13:17:29;;;;;;;3.40;3.03;;;;;;;;;;6072940;23;20007;-80
2022/06/11 13:19:55;;;;;;;3.17;2.85;;;;;;;;;;6097069;23;20092;-80
2022/06/11 13:22:41;;;;;;;5.93;2.95;;;;;;;;;;6096559;23;20007;-80
2022/06/11 13:25:12;;;;;;;4.60;3.17;;;;;;;;;;6070876;23;20411;-81
2022/06/11 13:27:50;;;;;;;3.08;2.78;;;;;;;;;;6096912;23;20010;-80
2022/06/11 13:30:35;;;;;;;2.85;2.53;;;;;;;;;;6071391;23;20010;-79
2022/06/11 13:33:10;;;;;;;2.50;2.30;;;;;;;;;;6096706;23;20335;-78
2022/06/11 13:35:44;;;;;;;3.50;2.83;;;;;;;;;;6096730;23;20077;-78
2022/06/11 13:38:28;;;;;;;3.50;3.17;;;;;;;;;;6096811;23;20044;-79
2022/06/11 13:41:13;;;;;;;4.18;3.60;;;;;;;;;;6096524;23;20013;-77
2022/06/11 13:43:57;;;;;;;4.10;3.38;;;;;;;;;;6096633;23;20003;-82
2022/06/11 13:46:24;;;;;;;3.45;2.80;;;;;;;;;;6096364;23;20002;-79
2022/06/11 13:49:02;;;;;;;4.70;3.03;;;;;;;;;;6096314;23;20307;-85
2022/06/11 13:51:29;;;;;;;3.45;3.15;;;;;;;;;;6096124;23;20315;-79
2022/06/11 13:56:48;;;;;;;4.05;3.20;;;;;;;;;;6096662;23;20574;-80
2022/06/11 13:59:15;;;;;;;4.05;3.75;;;;;;;;;;6096489;23;20009;-83
2022/06/11 14:02:01;;;;;;;3.88;3.42;;;;;;;;;;6096541;23;20002;-77
2022/06/11 14:04:31;;;;;;;4.05;3.65;;;;;;;;;;6072533;23;20017;-80
2022/06/11 14:06:59;;;;;;;3.38;3.10;;;;;;;;;;6070878;23;20010;-78
2022/06/11 14:12:31;;;;;;;4.20;3.75;;;;;;;;;;6096455;23;20408;-81
2022/06/11 14:15:26;;;;;;;4.07;3.67;;;;;;;;;;6096306;23;20391;-79
2022/06/11 14:17:55;;;;;;;3.92;3.55;;;;;;;;;;6066754;23;20014;-80
2022/06/11 14:20:24;;;;;;;4.95;4.40;;;;;;;;;;6096311;23;20007;-80
2022/06/11 14:22:52;;;;;;;4.22;3.92;;;;;;;;;;6095945;23;20050;-79
2022/06/11 14:25:35;;;;;;;5.60;4.82;;;;;;;;;;6096192;23;20086;-81
2022/06/11 14:28:16;;;;;;;5.43;4.13;;;;;;;;;;6096317;23;20018;-79
2022/06/11 14:30:45;;;;;;;4.45;4.05;;;;;;;;;;6096352;23;20333;-79
2022/06/11 14:33:12;;;;;;;5.35;4.25;;;;;;;;;;6096265;23;20002;-77
2022/06/11 14:35:53;;;;;;;5.25;4.65;;;;;;;;;;6096021;23;20065;-79
2022/06/11 14:38:24;;;;;;;5.70;4.20;;;;;;;;;;6096045;23;20062;-80
2022/06/11 14:41:10;;;;;;;4.88;4.45;;;;;;;;;;6096408;23;20008;-81
2022/06/11 14:44:01;;;;;;;5.53;4.32;;;;;;;;;;6070051;23;20030;-80
2022/06/11 14:49:05;;;;;;;5.13;4.72;;;;;;;;;;6105914;23;20350;-80
2022/06/11 14:51:37;;;;;;;5.03;4.50;;;;;;;;;;6095843;23;20002;-82
2022/06/11 14:54:03;;;;;;;5.20;4.80;;;;;;;;;;6096353;23;20002;-81
2022/06/11 14:56:32;;;;;;;5.03;4.55;;;;;;;;;;6095879;23;20013;-80
2022/06/11 14:59:17;;;;;;;5.00;4.57;;;;;;;;;;6096248;23;20005;-83
2022/06/11 15:02:02;;;;;;;6.10;5.50;;;;;;;;;;6096227;23;20001;-81
2022/06/11 15:04:33;;;;;;;5.88;5.20;;;;;;;;;;6096274;23;20009;-81
2022/06/11 15:07:22;;;;;;;6.18;5.57;;;;;;;;;;6070515;23;20002;-80
2022/06/11 15:10:00;;;;;;;5.55;5.10;;;;;;;;;;6077675;23;20390;-78
2022/06/11 15:12:33;;;;;;;5.38;4.88;;;;;;;;;;6095475;23;20062;-79
2022/06/11 15:15:17;;;;;;;5.80;5.30;;;;;;;;;;6096044;23;20014;-79
2022/06/11 15:17:48;;;;;;;6.05;5.55;;;;;;;;;;6096118;23;20010;-81
2022/06/11 15:20:21;;;;;;;5.80;5.30;;;;;;;;;;6095854;23;20430;-80
2022/06/11 15:22:50;;;;;;;5.60;5.10;;;;;;;;;;6095953;23;20003;-80
2022/06/11 15:25:19;;;;;;;5.20;4.80;;;;;;;;;;6095899;23;20016;-81
2022/06/11 15:27:51;;;;;;;6.32;5.55;;;;;;;;;;6095773;23;20010;-80
2022/06/11 15:30:21;;;;;;;6.60;6.00;;;;;;;;;;6096115;23;20003;-80
2022/06/11 15:32:48;;;;;;;6.53;5.97;;;;;;;;;;6095751;23;20006;-81
2022/06/11 15:35:33;;;;;;;6.25;5.78;;;;;;;;;;6071799;23;20089;-80
2022/06/11 15:38:01;;;;;;;10.60;5.93;;;;;;;;;;6097976;23;20017;-80
2022/06/11 15:40:30;;;;;;;6.65;6.07;;;;;;;;;;6097644;23;20002;-79